sensor_id;sensor_type;location;lat;lon;timestamp;P1;durP1;ratioP1;P2;durP2;ratioP2
48268;SDS011;34088;52.232;5.196;2023-04-07T00:00:20;25.40;;;13.15;;
48268;SDS011;34088;52.232;5.196;2023-04-07T00:02:46;30.88;;;12.65;;
48268;SDS011;34088;52.232;5.196;2023-04-07T00:05:13;28.75;;;12.73;;
48268;SDS011;34088;52.232;5.196;2023-04-07T00:07:39;32.05;;;12.60;;
48268;SDS011;34088;52.232;5.196;2023-04-07T00:10:05;23.23;;;12.77;;
48268;SDS011;34088;52.232;5.196;2023-04-07T00:12:31;26.85;;;12.75;;
48268;SDS011;34088;52.232;5.196;2023-04-07T00:14:57;29.63;;;12.77;;
48268;SDS011;34088;52.232;5.196;2023-04-07T00:17:23;28.67;;;11.85;;
48268;SDS011;34088;52.232;5.196;2023-04-07T00:32:48;27.03;;;12.00;;
48268;SDS011;34088;52.232;5.196;2023-04-07T00:35:15;32.38;;;12.30;;
48268;SDS011;34088;52.232;5.196;2023-04-07T00:37:41;24.10;;;12.27;;
48268;SDS011;34088;52.232;5.196;2023-04-07T00:40:08;32.70;;;13.73;;
48268;SDS011;34088;52.232;5.196;2023-04-07T00:42:34;32.05;;;14.45;;
48268;SDS011;34088;52.232;5.196;2023-04-07T00:45:00;32.00;;;14.70;;
48268;SDS011;34088;52.232;5.196;2023-04-07T00:47:26;44.83;;;15.68;;
48268;SDS011;34088;52.232;5.196;2023-04-07T00:49:52;32.40;;;15.32;;
48268;SDS011;34088;52.232;5.196;2023-04-07T00:52:18;37.25;;;15.05;;
48268;SDS011;34088;52.232;5.196;2023-04-07T00:54:51;35.42;;;14.98;;
48268;SDS011;34088;52.232;5.196;2023-04-07T00:57:18;35.70;;;15.65;;
48268;SDS011;34088;52.232;5.196;2023-04-07T00:59:44;36.63;;;16.13;;
48268;SDS011;34088;52.232;5.196;2023-04-07T01:02:14;34.80;;;15.55;;
48268;SDS011;34088;52.232;5.196;2023-04-07T01:04:53;36.85;;;15.95;;
48268;SDS011;34088;52.232;5.196;2023-04-07T01:07:24;40.28;;;16.77;;
48268;SDS011;34088;52.232;5.196;2023-04-07T01:09:53;41.13;;;16.90;;
48268;SDS011;34088;52.232;5.196;2023-04-07T01:12:25;36.25;;;16.38;;
48268;SDS011;34088;52.232;5.196;2023-04-07T01:14:54;36.78;;;17.27;;
48268;SDS011;34088;52.232;5.196;2023-04-07T01:17:24;41.15;;;16.25;;
48268;SDS011;34088;52.232;5.196;2023-04-07T01:22:17;36.38;;;17.77;;
48268;SDS011;34088;52.232;5.196;2023-04-07T01:27:53;37.03;;;16.45;;
48268;SDS011;34088;52.232;5.196;2023-04-07T01:30:00;37.20;;;17.05;;
48268;SDS011;34088;52.232;5.196;2023-04-07T01:32:27;35.40;;;16.65;;
48268;SDS011;34088;52.232;5.196;2023-04-07T01:34:53;38.75;;;17.08;;
48268;SDS011;34088;52.232;5.196;2023-04-07T01:37:20;37.63;;;16.02;;
48268;SDS011;34088;52.232;5.196;2023-04-07T01:39:46;32.90;;;15.65;;
48268;SDS011;34088;52.232;5.196;2023-04-07T01:42:12;33.72;;;15.18;;
48268;SDS011;34088;52.232;5.196;2023-04-07T01:44:39;31.95;;;15.32;;
48268;SDS011;34088;52.232;5.196;2023-04-07T01:47:06;35.60;;;15.48;;
48268;SDS011;34088;52.232;5.196;2023-04-07T01:49:32;33.35;;;14.35;;
48268;SDS011;34088;52.232;5.196;2023-04-07T01:51:58;29.25;;;14.60;;
48268;SDS011;34088;52.232;5.196;2023-04-07T01:54:24;39.00;;;15.73;;
48268;SDS011;34088;52.232;5.196;2023-04-07T01:56:51;34.88;;;15.48;;
48268;SDS011;34088;52.232;5.196;2023-04-07T01:59:17;32.92;;;14.57;;
48268;SDS011;34088;52.232;5.196;2023-04-07T02:01:43;31.63;;;14.95;;
48268;SDS011;34088;52.232;5.196;2023-04-07T02:06:41;32.33;;;14.63;;
48268;SDS011;34088;52.232;5.196;2023-04-07T02:09:08;31.63;;;14.57;;
48268;SDS011;34088;52.232;5.196;2023-04-07T02:11:35;31.75;;;14.15;;
48268;SDS011;34088;52.232;5.196;2023-04-07T02:14:03;33.50;;;14.65;;
48268;SDS011;34088;52.232;5.196;2023-04-07T02:16:29;31.88;;;14.60;;
48268;SDS011;34088;52.232;5.196;2023-04-07T02:18:56;30.08;;;13.85;;
48268;SDS011;34088;52.232;5.196;2023-04-07T02:21:22;36.20;;;12.85;;
48268;SDS011;34088;52.232;5.196;2023-04-07T02:23:48;27.40;;;12.75;;
48268;SDS011;34088;52.232;5.196;2023-04-07T02:26:14;28.63;;;12.02;;
48268;SDS011;34088;52.232;5.196;2023-04-07T02:28:40;34.33;;;12.32;;
48268;SDS011;34088;52.232;5.196;2023-04-07T02:31:06;33.58;;;12.27;;
48268;SDS011;34088;52.232;5.196;2023-04-07T02:33:32;32.85;;;12.13;;
48268;SDS011;34088;52.232;5.196;2023-04-07T02:35:58;38.08;;;12.43;;
48268;SDS011;34088;52.232;5.196;2023-04-07T02:38:24;39.20;;;11.63;;
48268;SDS011;34088;52.232;5.196;2023-04-07T02:40:51;28.38;;;11.65;;
48268;SDS011;34088;52.232;5.196;2023-04-07T02:43:18;30.73;;;11.05;;
48268;SDS011;34088;52.232;5.196;2023-04-07T02:45:44;31.20;;;9.63;;
48268;SDS011;34088;52.232;5.196;2023-04-07T02:48:10;36.47;;;11.10;;
48268;SDS011;34088;52.232;5.196;2023-04-07T02:50:36;30.38;;;10.20;;
48268;SDS011;34088;52.232;5.196;2023-04-07T02:53:02;28.00;;;9.32;;
48268;SDS011;34088;52.232;5.196;2023-04-07T02:55:28;30.05;;;9.50;;
48268;SDS011;34088;52.232;5.196;2023-04-07T02:57:54;33.58;;;9.70;;
48268;SDS011;34088;52.232;5.196;2023-04-07T03:00:20;26.63;;;11.63;;
48268;SDS011;34088;52.232;5.196;2023-04-07T03:02:46;32.88;;;10.32;;
48268;SDS011;34088;52.232;5.196;2023-04-07T03:05:12;31.27;;;9.65;;
48268;SDS011;34088;52.232;5.196;2023-04-07T03:07:38;32.63;;;9.07;;
48268;SDS011;34088;52.232;5.196;2023-04-07T03:10:05;29.85;;;9.52;;
48268;SDS011;34088;52.232;5.196;2023-04-07T03:12:31;38.38;;;9.77;;
48268;SDS011;34088;52.232;5.196;2023-04-07T03:14:57;27.20;;;9.95;;
48268;SDS011;34088;52.232;5.196;2023-04-07T03:17:23;32.33;;;10.45;;
48268;SDS011;34088;52.232;5.196;2023-04-07T03:19:49;25.55;;;10.18;;
48268;SDS011;34088;52.232;5.196;2023-04-07T03:22:16;29.88;;;10.55;;
48268;SDS011;34088;52.232;5.196;2023-04-07T03:24:41;28.88;;;9.60;;
48268;SDS011;34088;52.232;5.196;2023-04-07T03:27:07;25.73;;;9.73;;
48268;SDS011;34088;52.232;5.196;2023-04-07T03:29:33;35.00;;;10.23;;
48268;SDS011;34088;52.232;5.196;2023-04-07T03:32:00;30.02;;;10.15;;
48268;SDS011;34088;52.232;5.196;2023-04-07T03:34:26;27.75;;;10.70;;
48268;SDS011;34088;52.232;5.196;2023-04-07T03:36:52;25.40;;;10.50;;
48268;SDS011;34088;52.232;5.196;2023-04-07T03:39:18;25.63;;;10.30;;
48268;SDS011;34088;52.232;5.196;2023-04-07T03:41:44;23.17;;;9.65;;
48268;SDS011;34088;52.232;5.196;2023-04-07T03:44:10;23.65;;;9.82;;
48268;SDS011;34088;52.232;5.196;2023-04-07T03:46:36;25.27;;;10.25;;
48268;SDS011;34088;52.232;5.196;2023-04-07T03:49:02;26.55;;;10.23;;
48268;SDS011;34088;52.232;5.196;2023-04-07T03:51:28;28.27;;;11.20;;
48268;SDS011;34088;52.232;5.196;2023-04-07T03:53:54;35.30;;;11.50;;
48268;SDS011;34088;52.232;5.196;2023-04-07T03:56:20;22.70;;;11.15;;
48268;SDS011;34088;52.232;5.196;2023-04-07T03:58:46;27.75;;;11.13;;
48268;SDS011;34088;52.232;5.196;2023-04-07T04:01:13;24.58;;;10.95;;
48268;SDS011;34088;52.232;5.196;2023-04-07T04:03:39;26.35;;;11.32;;
48268;SDS011;34088;52.232;5.196;2023-04-07T04:06:05;30.17;;;11.57;;
48268;SDS011;34088;52.232;5.196;2023-04-07T04:08:31;22.63;;;9.82;;
48268;SDS011;34088;52.232;5.196;2023-04-07T04:10:57;22.52;;;9.43;;
48268;SDS011;34088;52.232;5.196;2023-04-07T04:13:23;15.77;;;8.10;;
48268;SDS011;34088;52.232;5.196;2023-04-07T04:15:49;18.85;;;8.05;;
48268;SDS011;34088;52.232;5.196;2023-04-07T04:18:15;17.35;;;6.72;;
48268;SDS011;34088;52.232;5.196;2023-04-07T04:20:41;19.63;;;6.65;;
48268;SDS011;34088;52.232;5.196;2023-04-07T04:23:07;20.65;;;7.20;;
48268;SDS011;34088;52.232;5.196;2023-04-07T04:25:33;19.65;;;6.82;;
48268;SDS011;34088;52.232;5.196;2023-04-07T04:27:59;18.15;;;6.65;;
48268;SDS011;34088;52.232;5.196;2023-04-07T04:30:25;19.48;;;6.38;;
48268;SDS011;34088;52.232;5.196;2023-04-07T04:32:51;15.82;;;6.35;;
48268;SDS011;34088;52.232;5.196;2023-04-07T04:35:17;15.27;;;6.05;;
48268;SDS011;34088;52.232;5.196;2023-04-07T04:37:43;20.63;;;6.50;;
48268;SDS011;34088;52.232;5.196;2023-04-07T04:40:10;17.83;;;6.28;;
48268;SDS011;34088;52.232;5.196;2023-04-07T04:42:36;13.30;;;6.10;;
48268;SDS011;34088;52.232;5.196;2023-04-07T04:45:02;17.00;;;6.25;;
48268;SDS011;34088;52.232;5.196;2023-04-07T04:47:28;15.15;;;6.03;;
48268;SDS011;34088;52.232;5.196;2023-04-07T04:49:54;14.50;;;5.13;;
48268;SDS011;34088;52.232;5.196;2023-04-07T04:52:20;13.55;;;5.50;;
48268;SDS011;34088;52.232;5.196;2023-04-07T04:54:46;15.43;;;5.03;;
48268;SDS011;34088;52.232;5.196;2023-04-07T04:57:12;15.45;;;5.35;;
48268;SDS011;34088;52.232;5.196;2023-04-07T04:59:38;9.82;;;4.55;;
48268;SDS011;34088;52.232;5.196;2023-04-07T05:02:04;15.77;;;5.07;;
48268;SDS011;34088;52.232;5.196;2023-04-07T05:04:30;17.65;;;5.40;;
48268;SDS011;34088;52.232;5.196;2023-04-07T05:06:56;13.50;;;5.18;;
48268;SDS011;34088;52.232;5.196;2023-04-07T05:09:22;19.30;;;5.65;;
48268;SDS011;34088;52.232;5.196;2023-04-07T05:11:48;15.98;;;5.38;;
48268;SDS011;34088;52.232;5.196;2023-04-07T05:14:14;17.55;;;5.45;;
48268;SDS011;34088;52.232;5.196;2023-04-07T05:16:40;14.95;;;5.32;;
48268;SDS011;34088;52.232;5.196;2023-04-07T05:19:06;17.40;;;5.47;;
48268;SDS011;34088;52.232;5.196;2023-04-07T05:21:32;15.15;;;5.72;;
48268;SDS011;34088;52.232;5.196;2023-04-07T05:23:58;16.05;;;5.63;;
48268;SDS011;34088;52.232;5.196;2023-04-07T05:26:24;18.17;;;5.88;;
48268;SDS011;34088;52.232;5.196;2023-04-07T05:28:50;17.80;;;6.07;;
48268;SDS011;34088;52.232;5.196;2023-04-07T05:31:16;16.35;;;5.55;;
48268;SDS011;34088;52.232;5.196;2023-04-07T05:33:42;12.75;;;5.40;;
48268;SDS011;34088;52.232;5.196;2023-04-07T05:36:08;17.52;;;5.82;;
48268;SDS011;34088;52.232;5.196;2023-04-07T05:38:34;17.92;;;5.47;;
48268;SDS011;34088;52.232;5.196;2023-04-07T05:41:00;19.85;;;5.85;;
48268;SDS011;34088;52.232;5.196;2023-04-07T05:43:26;15.35;;;5.55;;
48268;SDS011;34088;52.232;5.196;2023-04-07T05:45:52;18.23;;;5.65;;
48268;SDS011;34088;52.232;5.196;2023-04-07T05:48:18;17.10;;;5.78;;
48268;SDS011;34088;52.232;5.196;2023-04-07T05:50:44;16.50;;;5.55;;
48268;SDS011;34088;52.232;5.196;2023-04-07T05:53:10;19.10;;;6.10;;
48268;SDS011;34088;52.232;5.196;2023-04-07T05:55:36;24.58;;;6.13;;
48268;SDS011;34088;52.232;5.196;2023-04-07T05:58:02;18.65;;;6.40;;
48268;SDS011;34088;52.232;5.196;2023-04-07T06:00:28;16.50;;;6.35;;
48268;SDS011;34088;52.232;5.196;2023-04-07T06:02:54;20.33;;;6.90;;
48268;SDS011;34088;52.232;5.196;2023-04-07T06:05:20;20.35;;;7.22;;
48268;SDS011;34088;52.232;5.196;2023-04-07T06:07:46;17.23;;;6.47;;
48268;SDS011;34088;52.232;5.196;2023-04-07T06:10:12;14.10;;;6.28;;
48268;SDS011;34088;52.232;5.196;2023-04-07T06:12:38;23.08;;;7.47;;
48268;SDS011;34088;52.232;5.196;2023-04-07T06:15:04;19.95;;;6.88;;
48268;SDS011;34088;52.232;5.196;2023-04-07T06:17:30;19.50;;;7.35;;
48268;SDS011;34088;52.232;5.196;2023-04-07T06:19:56;25.65;;;8.18;;
48268;SDS011;34088;52.232;5.196;2023-04-07T06:22:22;19.60;;;7.60;;
48268;SDS011;34088;52.232;5.196;2023-04-07T06:24:48;20.10;;;7.78;;
48268;SDS011;34088;52.232;5.196;2023-04-07T06:27:15;33.25;;;8.82;;
48268;SDS011;34088;52.232;5.196;2023-04-07T06:29:41;21.40;;;8.10;;
48268;SDS011;34088;52.232;5.196;2023-04-07T06:32:07;19.55;;;8.32;;
48268;SDS011;34088;52.232;5.196;2023-04-07T06:34:33;25.42;;;9.40;;
48268;SDS011;34088;52.232;5.196;2023-04-07T06:36:59;23.83;;;8.73;;
48268;SDS011;34088;52.232;5.196;2023-04-07T06:39:25;21.23;;;8.82;;
48268;SDS011;34088;52.232;5.196;2023-04-07T06:41:51;18.20;;;8.45;;
48268;SDS011;34088;52.232;5.196;2023-04-07T06:44:17;21.05;;;8.30;;
48268;SDS011;34088;52.232;5.196;2023-04-07T06:46:43;29.92;;;8.82;;
48268;SDS011;34088;52.232;5.196;2023-04-07T06:49:11;21.30;;;8.65;;
48268;SDS011;34088;52.232;5.196;2023-04-07T06:51:37;28.15;;;8.80;;
48268;SDS011;34088;52.232;5.196;2023-04-07T06:54:03;22.00;;;7.82;;
48268;SDS011;34088;52.232;5.196;2023-04-07T06:56:31;23.23;;;7.35;;
48268;SDS011;34088;52.232;5.196;2023-04-07T06:58:58;17.85;;;7.30;;
48268;SDS011;34088;52.232;5.196;2023-04-07T07:01:24;19.88;;;6.10;;
48268;SDS011;34088;52.232;5.196;2023-04-07T07:03:50;24.35;;;6.50;;
48268;SDS011;34088;52.232;5.196;2023-04-07T07:06:16;19.10;;;6.50;;
48268;SDS011;34088;52.232;5.196;2023-04-07T07:08:42;26.08;;;6.10;;
48268;SDS011;34088;52.232;5.196;2023-04-07T07:11:08;25.58;;;6.95;;
48268;SDS011;34088;52.232;5.196;2023-04-07T07:13:35;17.00;;;5.95;;
48268;SDS011;34088;52.232;5.196;2023-04-07T07:16:01;21.02;;;5.88;;
48268;SDS011;34088;52.232;5.196;2023-04-07T07:18:27;16.40;;;6.10;;
48268;SDS011;34088;52.232;5.196;2023-04-07T07:20:53;25.13;;;7.22;;
48268;SDS011;34088;52.232;5.196;2023-04-07T07:23:19;21.38;;;6.20;;
48268;SDS011;34088;52.232;5.196;2023-04-07T07:25:45;20.95;;;6.00;;
48268;SDS011;34088;52.232;5.196;2023-04-07T07:28:11;17.45;;;5.85;;
48268;SDS011;34088;52.232;5.196;2023-04-07T07:30:38;13.05;;;4.53;;
48268;SDS011;34088;52.232;5.196;2023-04-07T07:33:05;13.32;;;4.50;;
48268;SDS011;34088;52.232;5.196;2023-04-07T07:35:31;13.60;;;4.70;;
48268;SDS011;34088;52.232;5.196;2023-04-07T07:37:57;10.48;;;4.47;;
48268;SDS011;34088;52.232;5.196;2023-04-07T07:40:23;15.13;;;4.45;;
48268;SDS011;34088;52.232;5.196;2023-04-07T07:42:49;12.23;;;3.55;;
48268;SDS011;34088;52.232;5.196;2023-04-07T07:45:15;18.90;;;4.63;;
48268;SDS011;34088;52.232;5.196;2023-04-07T07:47:43;12.07;;;3.90;;
48268;SDS011;34088;52.232;5.196;2023-04-07T07:50:09;11.98;;;3.88;;
48268;SDS011;34088;52.232;5.196;2023-04-07T07:52:35;11.90;;;3.45;;
48268;SDS011;34088;52.232;5.196;2023-04-07T07:55:01;19.23;;;4.40;;
48268;SDS011;34088;52.232;5.196;2023-04-07T07:57:27;18.00;;;4.60;;
48268;SDS011;34088;52.232;5.196;2023-04-07T07:59:55;17.38;;;4.88;;
48268;SDS011;34088;52.232;5.196;2023-04-07T08:02:21;15.35;;;4.65;;
48268;SDS011;34088;52.232;5.196;2023-04-07T08:04:50;15.02;;;4.43;;
48268;SDS011;34088;52.232;5.196;2023-04-07T08:07:16;13.95;;;3.97;;
48268;SDS011;34088;52.232;5.196;2023-04-07T08:09:42;21.13;;;4.53;;
48268;SDS011;34088;52.232;5.196;2023-04-07T08:12:08;14.65;;;4.05;;
48268;SDS011;34088;52.232;5.196;2023-04-07T08:14:34;20.92;;;5.25;;
48268;SDS011;34088;52.232;5.196;2023-04-07T08:16:59;11.70;;;4.28;;
48268;SDS011;34088;52.232;5.196;2023-04-07T08:19:25;17.42;;;4.32;;
48268;SDS011;34088;52.232;5.196;2023-04-07T08:21:50;17.08;;;4.32;;
48268;SDS011;34088;52.232;5.196;2023-04-07T08:24:16;13.82;;;4.38;;
48268;SDS011;34088;52.232;5.196;2023-04-07T08:26:42;16.02;;;4.35;;
48268;SDS011;34088;52.232;5.196;2023-04-07T08:29:09;19.48;;;4.70;;
48268;SDS011;34088;52.232;5.196;2023-04-07T08:31:34;12.52;;;3.50;;
48268;SDS011;34088;52.232;5.196;2023-04-07T08:34:00;13.73;;;4.47;;
48268;SDS011;34088;52.232;5.196;2023-04-07T08:36:26;13.00;;;3.45;;
48268;SDS011;34088;52.232;5.196;2023-04-07T08:38:52;12.25;;;3.80;;
48268;SDS011;34088;52.232;5.196;2023-04-07T08:41:23;18.10;;;4.43;;
48268;SDS011;34088;52.232;5.196;2023-04-07T08:43:53;16.10;;;4.30;;
48268;SDS011;34088;52.232;5.196;2023-04-07T08:46:21;11.75;;;3.70;;
48268;SDS011;34088;52.232;5.196;2023-04-07T08:48:48;12.18;;;3.53;;
48268;SDS011;34088;52.232;5.196;2023-04-07T08:51:15;9.27;;;3.00;;
48268;SDS011;34088;52.232;5.196;2023-04-07T08:53:51;14.68;;;3.40;;
48268;SDS011;34088;52.232;5.196;2023-04-07T08:56:18;9.07;;;3.42;;
48268;SDS011;34088;52.232;5.196;2023-04-07T08:58:46;8.93;;;2.83;;
48268;SDS011;34088;52.232;5.196;2023-04-07T09:01:12;12.65;;;3.17;;
48268;SDS011;34088;52.232;5.196;2023-04-07T09:03:38;10.77;;;3.30;;
48268;SDS011;34088;52.232;5.196;2023-04-07T09:06:04;13.57;;;3.55;;
48268;SDS011;34088;52.232;5.196;2023-04-07T09:08:29;12.30;;;3.85;;
48268;SDS011;34088;52.232;5.196;2023-04-07T09:10:55;10.85;;;2.95;;
48268;SDS011;34088;52.232;5.196;2023-04-07T09:13:21;12.85;;;2.90;;
48268;SDS011;34088;52.232;5.196;2023-04-07T09:15:48;10.38;;;2.90;;
48268;SDS011;34088;52.232;5.196;2023-04-07T09:18:14;13.23;;;3.78;;
48268;SDS011;34088;52.232;5.196;2023-04-07T09:20:53;11.98;;;3.05;;
48268;SDS011;34088;52.232;5.196;2023-04-07T09:23:27;10.30;;;3.10;;
48268;SDS011;34088;52.232;5.196;2023-04-07T09:25:55;12.30;;;3.15;;
48268;SDS011;34088;52.232;5.196;2023-04-07T09:28:23;7.13;;;2.53;;
48268;SDS011;34088;52.232;5.196;2023-04-07T09:30:53;6.80;;;2.80;;
48268;SDS011;34088;52.232;5.196;2023-04-07T09:33:28;6.50;;;2.80;;
48268;SDS011;34088;52.232;5.196;2023-04-07T09:35:54;9.30;;;2.92;;
48268;SDS011;34088;52.232;5.196;2023-04-07T09:38:20;8.95;;;2.38;;
48268;SDS011;34088;52.232;5.196;2023-04-07T09:40:46;10.63;;;2.67;;
48268;SDS011;34088;52.232;5.196;2023-04-07T09:43:16;8.27;;;2.60;;
48268;SDS011;34088;52.232;5.196;2023-04-07T09:45:43;8.25;;;3.00;;
48268;SDS011;34088;52.232;5.196;2023-04-07T09:48:18;9.05;;;2.63;;
48268;SDS011;34088;52.232;5.196;2023-04-07T09:50:44;9.63;;;2.55;;
48268;SDS011;34088;52.232;5.196;2023-04-07T09:53:13;9.93;;;2.70;;
48268;SDS011;34088;52.232;5.196;2023-04-07T09:55:39;8.85;;;3.30;;
48268;SDS011;34088;52.232;5.196;2023-04-07T09:58:06;9.68;;;2.50;;
48268;SDS011;34088;52.232;5.196;2023-04-07T10:00:32;8.93;;;2.22;;
48268;SDS011;34088;52.232;5.196;2023-04-07T10:02:59;8.82;;;2.90;;
48268;SDS011;34088;52.232;5.196;2023-04-07T10:05:25;9.32;;;2.75;;
48268;SDS011;34088;52.232;5.196;2023-04-07T10:07:52;8.82;;;2.50;;
48268;SDS011;34088;52.232;5.196;2023-04-07T10:10:18;9.40;;;2.38;;
48268;SDS011;34088;52.232;5.196;2023-04-07T10:12:44;11.85;;;2.40;;
48268;SDS011;34088;52.232;5.196;2023-04-07T10:15:11;11.38;;;2.40;;
48268;SDS011;34088;52.232;5.196;2023-04-07T10:17:39;6.65;;;2.00;;
48268;SDS011;34088;52.232;5.196;2023-04-07T10:20:08;7.43;;;1.98;;
48268;SDS011;34088;52.232;5.196;2023-04-07T10:22:34;9.73;;;2.30;;
48268;SDS011;34088;52.232;5.196;2023-04-07T10:25:22;9.85;;;2.35;;
48268;SDS011;34088;52.232;5.196;2023-04-07T10:27:52;10.67;;;2.80;;
48268;SDS011;34088;52.232;5.196;2023-04-07T10:30:30;10.32;;;2.20;;
48268;SDS011;34088;52.232;5.196;2023-04-07T10:35:22;10.43;;;2.20;;
48268;SDS011;34088;52.232;5.196;2023-04-07T10:40:32;7.30;;;1.95;;
48268;SDS011;34088;52.232;5.196;2023-04-07T10:42:58;8.48;;;2.28;;
48268;SDS011;34088;52.232;5.196;2023-04-07T10:48:13;9.50;;;2.42;;
48268;SDS011;34088;52.232;5.196;2023-04-07T10:50:39;9.80;;;2.40;;
48268;SDS011;34088;52.232;5.196;2023-04-07T10:53:10;7.22;;;2.25;;
48268;SDS011;34088;52.232;5.196;2023-04-07T10:55:43;6.78;;;2.30;;
48268;SDS011;34088;52.232;5.196;2023-04-07T10:58:16;10.68;;;2.30;;
48268;SDS011;34088;52.232;5.196;2023-04-07T11:03:28;4.20;;;1.90;;
48268;SDS011;34088;52.232;5.196;2023-04-07T11:06:04;5.47;;;2.13;;
48268;SDS011;34088;52.232;5.196;2023-04-07T11:08:41;7.53;;;2.50;;
48268;SDS011;34088;52.232;5.196;2023-04-07T11:11:12;7.10;;;2.20;;
48268;SDS011;34088;52.232;5.196;2023-04-07T11:13:46;7.68;;;2.00;;
48268;SDS011;34088;52.232;5.196;2023-04-07T11:16:13;7.47;;;2.22;;
48268;SDS011;34088;52.232;5.196;2023-04-07T11:18:40;6.72;;;2.30;;
48268;SDS011;34088;52.232;5.196;2023-04-07T11:21:06;5.50;;;2.00;;
48268;SDS011;34088;52.232;5.196;2023-04-07T11:23:44;6.28;;;2.10;;
48268;SDS011;34088;52.232;5.196;2023-04-07T11:26:11;7.13;;;2.50;;
48268;SDS011;34088;52.232;5.196;2023-04-07T11:28:44;6.88;;;2.38;;
48268;SDS011;34088;52.232;5.196;2023-04-07T11:31:11;7.82;;;2.53;;
48268;SDS011;34088;52.232;5.196;2023-04-07T11:33:39;10.38;;;2.53;;
48268;SDS011;34088;52.232;5.196;2023-04-07T11:36:06;9.13;;;2.72;;
48268;SDS011;34088;52.232;5.196;2023-04-07T11:38:35;9.13;;;3.42;;
48268;SDS011;34088;52.232;5.196;2023-04-07T11:41:09;6.40;;;3.22;;
48268;SDS011;34088;52.232;5.196;2023-04-07T11:43:35;11.02;;;4.82;;
48268;SDS011;34088;52.232;5.196;2023-04-07T11:46:20;8.35;;;3.08;;
48268;SDS011;34088;52.232;5.196;2023-04-07T11:48:46;5.20;;;2.42;;
48268;SDS011;34088;52.232;5.196;2023-04-07T11:51:15;8.73;;;3.00;;
48268;SDS011;34088;52.232;5.196;2023-04-07T11:53:42;8.27;;;2.60;;
48268;SDS011;34088;52.232;5.196;2023-04-07T11:56:08;9.85;;;2.80;;
48268;SDS011;34088;52.232;5.196;2023-04-07T11:58:45;10.50;;;2.90;;
48268;SDS011;34088;52.232;5.196;2023-04-07T12:01:12;11.60;;;3.20;;
48268;SDS011;34088;52.232;5.196;2023-04-07T12:03:53;12.68;;;3.10;;
48268;SDS011;34088;52.232;5.196;2023-04-07T12:06:29;11.35;;;3.20;;
48268;SDS011;34088;52.232;5.196;2023-04-07T12:08:58;10.15;;;2.78;;
48268;SDS011;34088;52.232;5.196;2023-04-07T12:11:25;7.13;;;2.92;;
48268;SDS011;34088;52.232;5.196;2023-04-07T12:13:50;13.48;;;3.20;;
48268;SDS011;34088;52.232;5.196;2023-04-07T12:16:16;8.98;;;3.22;;
48268;SDS011;34088;52.232;5.196;2023-04-07T12:18:43;12.82;;;3.42;;
48268;SDS011;34088;52.232;5.196;2023-04-07T12:21:08;9.27;;;2.63;;
48268;SDS011;34088;52.232;5.196;2023-04-07T12:23:34;13.10;;;3.65;;
48268;SDS011;34088;52.232;5.196;2023-04-07T12:26:00;13.98;;;3.67;;
48268;SDS011;34088;52.232;5.196;2023-04-07T12:28:26;10.98;;;3.60;;
48268;SDS011;34088;52.232;5.196;2023-04-07T12:30:53;12.13;;;3.60;;
48268;SDS011;34088;52.232;5.196;2023-04-07T12:33:19;10.32;;;3.85;;
48268;SDS011;34088;52.232;5.196;2023-04-07T12:35:45;13.25;;;4.00;;
48268;SDS011;34088;52.232;5.196;2023-04-07T12:38:10;9.75;;;3.72;;
48268;SDS011;34088;52.232;5.196;2023-04-07T12:40:36;13.35;;;3.30;;
48268;SDS011;34088;52.232;5.196;2023-04-07T12:43:02;10.10;;;3.38;;
48268;SDS011;34088;52.232;5.196;2023-04-07T12:45:28;10.73;;;3.38;;
48268;SDS011;34088;52.232;5.196;2023-04-07T12:47:55;13.35;;;3.80;;
48268;SDS011;34088;52.232;5.196;2023-04-07T12:50:20;12.57;;;3.50;;
48268;SDS011;34088;52.232;5.196;2023-04-07T12:52:46;10.77;;;3.28;;
48268;SDS011;34088;52.232;5.196;2023-04-07T12:55:12;11.07;;;3.58;;
48268;SDS011;34088;52.232;5.196;2023-04-07T12:57:38;9.90;;;3.50;;
48268;SDS011;34088;52.232;5.196;2023-04-07T13:00:04;11.00;;;3.95;;
48268;SDS011;34088;52.232;5.196;2023-04-07T13:02:30;7.85;;;3.22;;
48268;SDS011;34088;52.232;5.196;2023-04-07T13:04:56;9.57;;;3.20;;
48268;SDS011;34088;52.232;5.196;2023-04-07T13:07:22;9.10;;;3.53;;
48268;SDS011;34088;52.232;5.196;2023-04-07T13:09:47;9.35;;;3.97;;
48268;SDS011;34088;52.232;5.196;2023-04-07T13:12:13;8.60;;;3.80;;
48268;SDS011;34088;52.232;5.196;2023-04-07T13:14:39;14.70;;;3.78;;
48268;SDS011;34088;52.232;5.196;2023-04-07T13:17:06;9.70;;;3.55;;
48268;SDS011;34088;52.232;5.196;2023-04-07T13:19:32;13.20;;;3.50;;
48268;SDS011;34088;52.232;5.196;2023-04-07T13:21:58;7.25;;;3.63;;
48268;SDS011;34088;52.232;5.196;2023-04-07T13:24:24;9.40;;;3.50;;
48268;SDS011;34088;52.232;5.196;2023-04-07T13:26:50;6.80;;;2.97;;
48268;SDS011;34088;52.232;5.196;2023-04-07T13:29:16;11.32;;;3.65;;
48268;SDS011;34088;52.232;5.196;2023-04-07T13:31:43;10.45;;;3.25;;
48268;SDS011;34088;52.232;5.196;2023-04-07T13:34:09;10.15;;;4.28;;
48268;SDS011;34088;52.232;5.196;2023-04-07T13:36:35;16.25;;;4.75;;
48268;SDS011;34088;52.232;5.196;2023-04-07T13:39:01;14.20;;;5.10;;
48268;SDS011;34088;52.232;5.196;2023-04-07T13:41:27;15.88;;;5.80;;
48268;SDS011;34088;52.232;5.196;2023-04-07T13:43:52;13.18;;;5.65;;
48268;SDS011;34088;52.232;5.196;2023-04-07T13:46:18;12.80;;;4.82;;
48268;SDS011;34088;52.232;5.196;2023-04-07T13:48:44;14.25;;;4.90;;
48268;SDS011;34088;52.232;5.196;2023-04-07T13:51:09;15.98;;;5.15;;
48268;SDS011;34088;52.232;5.196;2023-04-07T13:53:35;19.40;;;6.00;;
48268;SDS011;34088;52.232;5.196;2023-04-07T13:56:01;15.40;;;5.57;;
48268;SDS011;34088;52.232;5.196;2023-04-07T13:58:27;12.30;;;5.03;;
48268;SDS011;34088;52.232;5.196;2023-04-07T14:00:53;16.60;;;5.45;;
48268;SDS011;34088;52.232;5.196;2023-04-07T14:03:20;13.77;;;5.10;;
48268;SDS011;34088;52.232;5.196;2023-04-07T14:05:46;12.52;;;4.38;;
48268;SDS011;34088;52.232;5.196;2023-04-07T14:08:12;13.95;;;4.65;;
48268;SDS011;34088;52.232;5.196;2023-04-07T14:10:38;12.70;;;4.25;;
48268;SDS011;34088;52.232;5.196;2023-04-07T14:13:04;11.02;;;5.00;;
48268;SDS011;34088;52.232;5.196;2023-04-07T14:15:30;12.50;;;4.78;;
48268;SDS011;34088;52.232;5.196;2023-04-07T14:17:56;13.38;;;5.30;;
48268;SDS011;34088;52.232;5.196;2023-04-07T14:20:22;15.55;;;5.10;;
48268;SDS011;34088;52.232;5.196;2023-04-07T14:22:47;11.13;;;4.97;;
48268;SDS011;34088;52.232;5.196;2023-04-07T14:25:13;15.20;;;5.60;;
48268;SDS011;34088;52.232;5.196;2023-04-07T14:27:38;13.52;;;5.30;;
48268;SDS011;34088;52.232;5.196;2023-04-07T14:30:04;15.40;;;5.97;;
48268;SDS011;34088;52.232;5.196;2023-04-07T14:32:30;13.82;;;5.57;;
48268;SDS011;34088;52.232;5.196;2023-04-07T14:34:57;12.50;;;5.55;;
48268;SDS011;34088;52.232;5.196;2023-04-07T14:37:23;17.17;;;6.00;;
48268;SDS011;34088;52.232;5.196;2023-04-07T14:39:50;13.93;;;6.03;;
48268;SDS011;34088;52.232;5.196;2023-04-07T14:42:17;19.65;;;6.78;;
48268;SDS011;34088;52.232;5.196;2023-04-07T14:44:43;16.02;;;6.15;;
48268;SDS011;34088;52.232;5.196;2023-04-07T14:47:08;15.00;;;5.93;;
48268;SDS011;34088;52.232;5.196;2023-04-07T14:49:34;17.08;;;7.05;;
48268;SDS011;34088;52.232;5.196;2023-04-07T14:51:59;19.00;;;7.50;;
48268;SDS011;34088;52.232;5.196;2023-04-07T14:54:25;16.08;;;7.55;;
48268;SDS011;34088;52.232;5.196;2023-04-07T14:56:51;19.13;;;7.10;;
48268;SDS011;34088;52.232;5.196;2023-04-07T14:59:16;16.40;;;6.95;;
48268;SDS011;34088;52.232;5.196;2023-04-07T15:01:42;14.80;;;6.57;;